Time;durP1;ratioP1;P1;durP2;ratioP2;P2;SDS_P1;SDS_P2;PMS_P1;PMS_P2;Temp;Humidity;BMP_temperature;BMP_pressure;BME280_temperature;BME280_humidity;BME280_pressure;Samples;Min_cycle;Max_cycle;Signal;HPM_P1;HPM_P2
2021/06/20 00:00:17;;;;;;;2.92;1.20;;;;;;;22.82;84.77;100713.05;1678208;84;21425;-46
2021/06/20 00:02:46;;;;;;;1.22;0.90;;;;;;;22.79;84.86;100706.59;1672781;84;21024;-48
2021/06/20 00:05:15;;;;;;;1.92;1.15;;;;;;;22.78;85.14;100712.55;1681166;84;21503;-51
2021/06/20 00:07:43;;;;;;;5.30;1.30;;;;;;;22.77;84.87;100714.89;1682802;83;21934;-44
2021/06/20 00:10:14;;;;;;;5.80;1.53;;;;;;;22.78;84.65;100718.45;1705207;83;21469;-44
2021/06/20 00:12:40;;;;;;;2.42;1.10;;;;;;;22.74;85.00;100713.87;1715874;82;21393;-48
2021/06/20 00:15:12;;;;;;;2.33;1.47;;;;;;;22.72;85.03;100715.05;1716894;82;20997;-49
2021/06/20 00:17:38;;;;;;;3.33;1.30;;;;;;;22.70;85.39;100717.91;1700566;83;21770;-49
2021/06/20 00:20:07;;;;;;;3.08;1.52;;;;;;;22.69;85.48;100718.43;1716566;82;21001;-49
2021/06/20 00:22:34;;;;;;;4.12;1.10;;;;;;;22.72;85.45;100724.56;1710360;83;20961;-49
2021/06/20 00:25:01;;;;;;;4.15;1.47;;;;;;;22.72;85.29;100721.84;1710455;82;20972;-48
2021/06/20 00:27:27;;;;;;;3.77;1.67;;;;;;;22.69;85.33;100719.78;1710205;82;21012;-47
2021/06/20 00:29:54;;;;;;;4.65;1.42;;;;;;;22.67;85.17;100712.30;1711669;82;21566;-50
2021/06/20 00:32:21;;;;;;;4.78;1.95;;;;;;;22.65;85.24;100712.12;1712202;83;21000;-49
2021/06/20 00:34:47;;;;;;;1.60;1.10;;;;;;;22.62;85.31;100714.66;1706848;82;20953;-45
2021/06/20 00:37:14;;;;;;;2.83;2.00;;;;;;;22.62;85.72;100711.09;1708771;83;21472;-45
2021/06/20 00:39:41;;;;;;;3.05;1.15;;;;;;;22.63;85.60;100712.30;1713807;82;20964;-47
2021/06/20 00:42:08;;;;;;;1.90;0.90;;;;;;;22.63;85.40;100710.94;1702970;82;21930;-49
2021/06/20 00:44:47;;;;;;;3.37;1.30;;;;;;;22.61;85.61;100711.61;1712627;83;20949;-46
2021/06/20 00:47:15;;;;;;;3.55;1.30;;;;;;;22.60;85.79;100708.56;1699354;83;21001;-46
2021/06/20 00:49:42;;;;;;;4.05;1.30;;;;;;;22.58;86.35;100698.84;1705781;83;20950;-47
2021/06/20 00:52:09;;;;;;;2.85;1.60;;;;;;;22.53;87.13;100702.55;1707584;82;20992;-46
2021/06/20 00:54:36;;;;;;;4.47;1.60;;;;;;;22.51;87.54;100701.37;1703987;83;21028;-47
2021/06/20 00:57:03;;;;;;;1.27;1.02;;;;;;;22.51;87.49;100702.73;1704029;82;20957;-46
2021/06/20 00:59:30;;;;;;;1.55;1.22;;;;;;;22.48;87.83;100703.05;1703195;82;22084;-46
2021/06/20 01:01:57;;;;;;;5.65;2.20;;;;;;;22.46;87.65;100704.56;1706267;83;21305;-47
2021/06/20 01:04:23;;;;;;;4.47;1.32;;;;;;;22.45;87.67;100706.07;1708659;82;20957;-52
2021/06/20 01:06:50;;;;;;;1.75;1.10;;;;;;;22.46;87.66;100708.64;1701901;83;20985;-52
2021/06/20 01:09:17;;;;;;;2.47;1.40;;;;;;;22.47;87.50;100721.20;1705723;83;20992;-53
2021/06/20 01:11:44;;;;;;;3.17;1.47;;;;;;;22.50;87.31;100711.03;1697450;82;20976;-52
2021/06/20 01:14:12;;;;;;;1.37;1.22;;;;;;;22.45;87.06;100716.45;1702727;81;20936;-53
2021/06/20 01:16:40;;;;;;;2.90;1.20;;;;;;;22.43;87.15;100714.92;1694422;83;20944;-52
2021/06/20 01:19:07;;;;;;;2.12;1.20;;;;;;;22.39;88.89;100720.31;1692071;83;21286;-48
2021/06/20 01:21:35;;;;;;;4.87;1.07;;;;;;;22.34;89.42;100719.43;1694404;82;21008;-49
2021/06/20 01:24:01;;;;;;;4.60;1.62;;;;;;;22.31;90.11;100721.12;1695766;82;20968;-49
2021/06/20 01:26:28;;;;;;;2.80;1.30;;;;;;;22.28;90.14;100720.09;1698260;82;20963;-52
2021/06/20 01:29:03;;;;;;;2.27;1.25;;;;;;;22.23;89.44;100726.50;1641649;83;20976;-48
2021/06/20 01:31:23;;;;;;;2.12;1.05;;;;;;;22.16;89.57;100738.46;1693458;83;20988;-47
2021/06/20 01:33:49;;;;;;;3.83;1.30;;;;;;;22.17;89.64;100732.52;1700482;83;21444;-45
2021/06/20 01:36:16;;;;;;;5.42;1.75;;;;;;;22.18;89.45;100732.89;1697201;83;20941;-44
2021/06/20 01:38:42;;;;;;;4.50;1.25;;;;;;;22.20;89.74;100737.66;1694551;83;21004;-44
2021/06/20 01:41:09;;;;;;;3.85;1.20;;;;;;;22.19;90.23;100738.65;1696886;83;20952;-42
2021/06/20 01:43:36;;;;;;;2.77;1.10;;;;;;;22.18;90.63;100737.80;1693744;82;21502;-44
2021/06/20 01:46:04;;;;;;;3.67;1.40;;;;;;;22.17;90.40;100736.08;1696753;83;20964;-45
2021/06/20 01:48:31;;;;;;;6.47;2.12;;;;;;;22.14;89.61;100729.62;1706420;82;21007;-44
2021/06/20 01:50:57;;;;;;;3.40;1.98;;;;;;;22.13;90.53;100733.36;1694273;83;20996;-45
2021/06/20 01:53:24;;;;;;;2.70;1.20;;;;;;;22.11;91.00;100742.16;1697990;83;20952;-42
2021/06/20 01:55:50;;;;;;;3.95;1.47;;;;;;;22.09;90.51;100737.39;1697517;83;21482;-43
2021/06/20 01:58:18;;;;;;;3.77;0.93;;;;;;;22.06;90.53;100732.28;1692983;83;20933;-46
2021/06/20 02:00:48;;;;;;;3.02;1.47;;;;;;;22.01;91.55;100730.55;1696246;83;20968;-43
2021/06/20 02:03:17;;;;;;;6.72;1.87;;;;;;;21.94;91.31;100726.24;1695094;83;20921;-44
2021/06/20 02:05:46;;;;;;;2.62;1.40;;;;;;;21.88;92.40;100720.10;1697247;83;20960;-44
2021/06/20 02:08:17;;;;;;;2.20;1.05;;;;;;;21.85;92.89;100722.26;1694752;81;21012;-45
2021/06/20 02:10:42;;;;;;;5.33;1.30;;;;;;;21.81;93.22;100717.15;1698096;83;20964;-46
2021/06/20 02:13:08;;;;;;;2.10;1.15;;;;;;;21.80;93.55;100712.74;1708986;83;20965;-42
2021/06/20 02:15:35;;;;;;;2.65;1.30;;;;;;;21.78;93.88;100717.98;1710950;82;20977;-41
2021/06/20 02:18:03;;;;;;;1.72;0.98;;;;;;;21.77;94.46;100710.83;1710499;82;21443;-41
2021/06/20 02:20:31;;;;;;;2.10;1.57;;;;;;;21.78;95.12;100712.55;1709631;83;20949;-43
2021/06/20 02:22:57;;;;;;;1.55;1.27;;;;;;;21.80;95.28;100715.97;1707692;83;21726;-43
2021/06/20 02:25:24;;;;;;;1.87;1.55;;;;;;;21.82;95.19;100712.57;1712707;83;20980;-45
2021/06/20 02:27:53;;;;;;;2.00;1.12;;;;;;;21.83;94.51;100717.85;1709332;83;20960;-43
2021/06/20 02:30:21;;;;;;;4.10;1.70;;;;;;;21.82;93.58;100714.80;1720394;83;20957;-44
2021/06/20 02:32:47;;;;;;;2.92;0.98;;;;;;;21.75;93.45;100712.36;1716376;82;21428;-44
2021/06/20 02:35:14;;;;;;;5.00;1.42;;;;;;;21.66;93.77;100715.16;1716496;82;20973;-45
2021/06/20 02:37:42;;;;;;;3.55;1.12;;;;;;;21.60;94.54;100719.36;1720458;82;21008;-42
2021/06/20 02:40:10;;;;;;;3.85;1.20;;;;;;;21.54;95.05;100716.73;1711103;82;21633;-43
2021/06/20 02:42:38;;;;;;;4.17;1.30;;;;;;;21.54;95.50;100713.17;1707967;82;21515;-43
2021/06/20 02:45:06;;;;;;;6.15;1.52;;;;;;;21.51;96.07;100704.00;1709842;83;20965;-43
2021/06/20 02:47:32;;;;;;;3.62;1.20;;;;;;;21.47;96.93;100706.19;1718357;82;20992;-43
2021/06/20 02:49:59;;;;;;;4.42;1.35;;;;;;;21.45;96.61;100699.21;1719547;83;21000;-43
2021/06/20 02:52:25;;;;;;;2.42;1.25;;;;;;;21.45;96.56;100700.05;1708359;82;20985;-43
2021/06/20 02:54:52;;;;;;;3.72;1.15;;;;;;;21.47;96.77;100708.90;1710954;82;20942;-46
2021/06/20 02:57:23;;;;;;;4.70;1.30;;;;;;;21.50;96.84;100710.45;1705156;82;20980;-42
2021/06/20 02:59:51;;;;;;;5.75;1.00;;;;;;;21.55;96.47;100709.47;1704874;82;20997;-43
2021/06/20 03:02:18;;;;;;;4.97;1.15;;;;;;;21.60;96.05;100716.64;1711550;82;21016;-46
2021/06/20 03:04:45;;;;;;;2.65;0.98;;;;;;;21.64;96.11;100719.38;1713622;82;20966;-44
2021/06/20 03:07:12;;;;;;;2.05;1.27;;;;;;;21.70;95.54;100725.55;1707915;83;21020;-45
2021/06/20 03:09:40;;;;;;;4.20;1.00;;;;;;;21.74;94.60;100739.13;1715898;82;20957;-45
2021/06/20 03:12:08;;;;;;;3.37;1.52;;;;;;;21.77;93.79;100738.84;1699856;83;21010;-45
2021/06/20 03:14:35;;;;;;;8.20;1.45;;;;;;;21.81;93.51;100740.73;1701117;83;21478;-47
2021/06/20 03:17:03;;;;;;;2.58;2.00;;;;;;;21.85;93.60;100753.47;1701121;83;21007;-46
2021/06/20 03:19:32;;;;;;;9.85;1.60;;;;;;;21.88;93.17;100754.54;1702396;83;20956;-47
2021/06/20 03:22:01;;;;;;;1.77;1.23;;;;;;;21.90;93.23;100755.20;1703520;83;20948;-45
2021/06/20 03:24:33;;;;;;;1.32;0.82;;;;;;;21.94;93.25;100753.90;1702349;83;20949;-42
2021/06/20 03:27:00;;;;;;;8.13;1.77;;;;;;;21.94;92.78;100753.39;1702583;82;21015;-41
2021/06/20 03:29:27;;;;;;;1.70;0.95;;;;;;;21.94;91.85;100748.47;1698438;83;21463;-47
2021/06/20 03:31:54;;;;;;;1.90;1.37;;;;;;;21.89;90.42;100741.30;1698598;83;20991;-44
2021/06/20 03:34:20;;;;;;;2.10;1.10;;;;;;;21.78;90.33;100732.91;1708449;83;21177;-44
2021/06/20 03:36:47;;;;;;;1.67;1.17;;;;;;;21.71;90.93;100731.31;1695420;83;21023;-45
2021/06/20 03:39:14;;;;;;;4.72;1.50;;;;;;;21.67;91.36;100731.30;1696015;83;20959;-43
2021/06/20 03:41:40;;;;;;;2.40;1.10;;;;;;;21.64;91.58;100720.73;1695247;82;20972;-46
2021/06/20 03:44:07;;;;;;;2.95;1.10;;;;;;;21.63;91.09;100722.27;1701049;83;20932;-46
2021/06/20 03:46:34;;;;;;;2.10;0.93;;;;;;;21.61;91.36;100718.34;1707970;83;20960;-47
2021/06/20 03:49:03;;;;;;;3.40;2.02;;;;;;;21.58;91.83;100714.07;1705886;83;20941;-47
2021/06/20 03:51:30;;;;;;;5.65;1.35;;;;;;;21.55;92.52;100704.05;1700437;83;20968;-46
2021/06/20 03:53:57;;;;;;;2.67;1.17;;;;;;;21.48;92.42;100702.45;1707769;83;20925;-42
2021/06/20 03:56:24;;;;;;;1.82;1.05;;;;;;;21.41;92.62;100700.52;1709230;82;20940;-43
2021/06/20 03:58:51;;;;;;;6.25;1.50;;;;;;;21.32;92.66;100692.27;1703029;83;20972;-43
2021/06/20 04:03:53;;;;;;;3.65;1.00;;;;;;;21.30;93.18;100695.64;1791097;78;22254;-44
2021/06/20 04:06:19;;;;;;;2.15;1.17;;;;;;;21.32;93.65;100699.05;1756458;80;20995;-44
2021/06/20 04:08:47;;;;;;;1.12;1.02;;;;;;;21.38;92.90;100697.09;1751119;80;20980;-44
2021/06/20 04:11:13;;;;;;;2.65;1.42;;;;;;;21.46;93.11;100713.11;1746938;80;21473;-44
2021/06/20 04:13:40;;;;;;;3.30;1.10;;;;;;;21.50;92.95;100700.44;1752071;80;20991;-39
2021/06/20 04:16:06;;;;;;;3.35;1.10;;;;;;;21.50;93.34;100699.09;1754004;80;20955;-42
2021/06/20 04:18:33;;;;;;;3.55;1.30;;;;;;;21.54;93.39;100697.75;1749484;80;21509;-41
2021/06/20 04:20:59;;;;;;;5.22;1.20;;;;;;;21.57;93.97;100687.09;1750009;80;20944;-41
2021/06/20 04:23:26;;;;;;;3.65;1.07;;;;;;;21.60;93.54;100686.80;1721893;81;20962;-41
2021/06/20 04:25:53;;;;;;;2.72;0.90;;;;;;;21.64;91.40;100681.39;1720933;81;20948;-42
2021/06/20 04:28:21;;;;;;;4.30;1.07;;;;;;;21.66;89.75;100670.39;1721240;81;20947;-44
2021/06/20 04:30:53;;;;;;;1.00;0.80;;;;;;;21.67;88.68;100662.11;1703916;83;21514;-41
2021/06/20 04:33:17;;;;;;;1.98;1.12;;;;;;;21.68;88.26;100661.09;1712274;81;21034;-42
2021/06/20 04:35:43;;;;;;;3.37;1.30;;;;;;;21.72;87.59;100665.68;1717322;81;20927;-43
2021/06/20 04:38:10;;;;;;;2.30;0.80;;;;;;;21.75;86.90;100668.10;1712416;82;20947;-44
2021/06/20 04:40:39;;;;;;;3.08;1.20;;;;;;;21.78;85.24;100668.63;1717722;81;20919;-44
2021/06/20 04:43:09;;;;;;;2.22;1.10;;;;;;;21.83;85.72;100675.78;1716990;81;21590;-42
2021/06/20 04:45:34;;;;;;;1.55;0.98;;;;;;;21.89;85.75;100682.44;1727822;81;21565;-42
2021/06/20 04:48:01;;;;;;;0.95;0.72;;;;;;;21.96;85.84;100682.16;1715653;81;20959;-43
2021/06/20 04:50:27;;;;;;;1.72;0.82;;;;;;;22.04;85.16;100682.20;1718272;81;21431;-44
2021/06/20 04:52:54;;;;;;;2.55;0.90;;;;;;;22.10;83.76;100668.52;1714034;81;20932;-44
2021/06/20 04:55:20;;;;;;;2.25;1.20;;;;;;;22.13;83.77;100663.28;1714069;81;21008;-42
2021/06/20 04:57:47;;;;;;;2.72;1.25;;;;;;;22.17;83.48;100660.05;1718932;81;20943;-40
2021/06/20 05:00:15;;;;;;;3.25;1.00;;;;;;;22.24;82.90;100669.30;1716900;81;20959;-43
2021/06/20 05:02:41;;;;;;;1.87;0.82;;;;;;;22.32;82.58;100664.41;1711150;81;21374;-43
2021/06/20 05:05:10;;;;;;;3.67;1.30;;;;;;;22.41;83.69;100668.05;1701856;82;20981;-42
2021/06/20 05:07:37;;;;;;;2.83;1.00;;;;;;;22.49;82.52;100672.14;1738549;80;21012;-44
2021/06/20 05:10:05;;;;;;;6.03;0.98;;;;;;;22.56;81.35;100660.98;1738567;80;20932;-45
2021/06/20 05:12:32;;;;;;;3.30;1.30;;;;;;;22.62;79.08;100660.83;1735110;80;20949;-44
2021/06/20 05:14:58;;;;;;;7.42;1.87;;;;;;;22.65;79.02;100668.16;1737826;80;20992;-45
2021/06/20 05:17:25;;;;;;;4.58;1.45;;;;;;;22.69;80.14;100668.16;1740879;80;21040;-46
2021/06/20 05:19:52;;;;;;;2.35;1.10;;;;;;;22.74;79.23;100668.19;1734437;80;21007;-42
2021/06/20 05:22:19;;;;;;;2.70;1.05;;;;;;;22.77;78.68;100675.48;1737588;80;20947;-46
2021/06/20 05:24:46;;;;;;;2.52;0.80;;;;;;;22.79;77.89;100678.90;1739517;80;21012;-46
2021/06/20 05:27:13;;;;;;;3.92;1.27;;;;;;;22.81;77.44;100676.03;1739914;80;20952;-45
2021/06/20 05:29:40;;;;;;;3.95;1.20;;;;;;;22.83;78.25;100672.13;1697472;82;20940;-48
2021/06/20 05:32:07;;;;;;;2.10;1.00;;;;;;;22.86;78.28;100668.23;1707210;82;20999;-46
2021/06/20 05:34:34;;;;;;;3.02;1.00;;;;;;;22.85;78.43;100663.79;1738057;80;20976;-43
2021/06/20 05:37:00;;;;;;;3.20;0.90;;;;;;;22.87;78.73;100663.97;1699101;82;20960;-44
2021/06/20 05:39:27;;;;;;;1.25;0.75;;;;;;;22.87;78.99;100668.05;1700288;82;21370;-46
2021/06/20 05:41:53;;;;;;;2.17;0.80;;;;;;;22.88;79.13;100667.05;1699888;82;21000;-45
2021/06/20 05:44:20;;;;;;;4.45;1.10;;;;;;;22.88;78.14;100671.13;1698970;82;21481;-47
2021/06/20 05:46:47;;;;;;;3.20;1.22;;;;;;;22.91;78.17;100678.09;1702615;82;21001;-45
2021/06/20 05:49:14;;;;;;;2.55;1.22;;;;;;;22.95;77.15;100681.32;1704250;82;20960;-46
2021/06/20 05:51:40;;;;;;;2.20;1.10;;;;;;;22.97;76.99;100677.45;1701536;82;20980;-44
2021/06/20 05:54:08;;;;;;;8.25;1.20;;;;;;;22.99;76.91;100683.58;1705608;82;21435;-46
2021/06/20 05:56:34;;;;;;;2.22;0.98;;;;;;;23.01;77.09;100678.84;1699581;82;21556;-47
2021/06/20 05:59:01;;;;;;;2.70;0.75;;;;;;;23.04;77.72;100681.73;1705942;82;21894;-49
2021/06/20 06:01:29;;;;;;;1.40;1.30;;;;;;;23.04;77.35;100688.02;1700098;82;21347;-45
2021/06/20 06:03:57;;;;;;;2.22;0.90;;;;;;;23.06;79.67;100691.42;1710359;82;20964;-45
2021/06/20 06:06:24;;;;;;;2.65;0.95;;;;;;;23.07;79.37;100699.07;1750024;80;20948;-45
2021/06/20 06:08:52;;;;;;;1.32;0.98;;;;;;;23.06;77.82;100696.86;1740301;80;21539;-42
2021/06/20 06:11:19;;;;;;;3.62;0.78;;;;;;;23.05;77.37;100686.98;1745706;80;20960;-43
2021/06/20 06:13:46;;;;;;;1.10;1.00;;;;;;;23.05;77.26;100684.78;1749659;80;21745;-43
2021/06/20 06:16:12;;;;;;;2.45;1.32;;;;;;;23.04;77.03;100690.73;1742446;80;20948;-43
2021/06/20 06:18:39;;;;;;;1.47;1.15;;;;;;;23.04;77.31;100678.50;1746506;80;20976;-45
2021/06/20 06:21:05;;;;;;;4.28;1.10;;;;;;;23.06;77.46;100682.42;1744105;81;20978;-45
2021/06/20 06:23:32;;;;;;;3.27;1.00;;;;;;;23.07;77.84;100685.47;1714267;82;21030;-44
2021/06/20 06:25:59;;;;;;;4.20;1.52;;;;;;;23.09;77.45;100683.44;1742127;80;21008;-44
2021/06/20 06:28:26;;;;;;;3.83;1.05;;;;;;;23.12;77.68;100685.83;1744984;80;20963;-42
2021/06/20 06:30:52;;;;;;;1.15;1.00;;;;;;;23.15;77.32;100685.48;1704454;82;20971;-46
2021/06/20 06:33:19;;;;;;;1.57;1.07;;;;;;;23.18;76.19;100678.86;1710812;82;21290;-44
2021/06/20 06:35:45;;;;;;;1.85;0.90;;;;;;;23.22;77.57;100680.24;1751480;80;20933;-44
2021/06/20 06:38:11;;;;;;;2.52;0.88;;;;;;;23.25;78.93;100684.82;1745745;80;20948;-45
2021/06/20 06:40:38;;;;;;;2.20;1.07;;;;;;;23.29;78.33;100687.56;1747888;80;20973;-44
2021/06/20 06:43:04;;;;;;;4.78;1.30;;;;;;;23.31;77.44;100684.17;1707414;82;20933;-44
2021/06/20 06:45:31;;;;;;;2.40;1.02;;;;;;;23.37;77.30;100679.08;1713197;82;21510;-43
2021/06/20 06:47:58;;;;;;;2.58;0.80;;;;;;;23.40;77.24;100680.94;1707877;82;20984;-43
2021/06/20 06:50:25;;;;;;;2.35;1.10;;;;;;;23.42;75.42;100670.74;1711598;82;20992;-44
2021/06/20 06:52:51;;;;;;;1.67;1.02;;;;;;;23.44;75.02;100674.67;1716253;82;21354;-44
2021/06/20 06:55:17;;;;;;;1.67;0.95;;;;;;;23.47;76.51;100667.00;1742693;80;21737;-43
2021/06/20 06:57:44;;;;;;;2.27;1.05;;;;;;;23.51;76.53;100664.30;1749696;80;20951;-43
2021/06/20 07:00:12;;;;;;;2.62;1.22;;;;;;;23.58;76.82;100657.64;1748862;80;21449;-46
2021/06/20 07:02:39;;;;;;;4.80;0.90;;;;;;;23.67;77.74;100659.88;1741263;80;20956;-46
2021/06/20 07:05:06;;;;;;;1.22;0.93;;;;;;;23.71;76.85;100656.64;1750218;80;20994;-43
2021/06/20 07:07:33;;;;;;;4.33;0.80;;;;;;;23.75;74.43;100655.81;1755893;80;21016;-51
2021/06/20 07:10:00;;;;;;;4.28;0.88;;;;;;;23.76;73.96;100656.14;1749501;80;21019;-45
2021/06/20 07:12:31;;;;;;;2.15;0.88;;;;;;;23.79;71.94;100657.66;1758709;80;21374;-46
2021/06/20 07:14:59;;;;;;;3.72;1.67;;;;;;;23.82;72.38;100656.83;1755186;80;21011;-44
2021/06/20 07:17:25;;;;;;;1.95;1.15;;;;;;;23.86;72.41;100655.97;1752594;80;20999;-43
2021/06/20 07:19:52;;;;;;;6.50;1.52;;;;;;;23.87;71.19;100652.23;1750886;80;20988;-49
2021/06/20 07:22:19;;;;;;;2.95;0.93;;;;;;;23.84;70.95;100658.88;1758564;80;20928;-45
2021/06/20 07:24:45;;;;;;;4.17;1.62;;;;;;;23.82;70.33;100649.19;1755406;80;20968;-43
2021/06/20 07:27:13;;;;;;;2.12;1.20;;;;;;;23.79;68.68;100657.66;1756026;80;20948;-44
2021/06/20 07:29:41;;;;;;;3.90;1.50;;;;;;;23.75;69.28;100659.89;1756147;80;21295;-45
2021/06/20 07:32:08;;;;;;;3.15;1.30;;;;;;;23.73;70.07;100667.37;1754357;80;20956;-46
2021/06/20 07:34:35;;;;;;;1.50;0.93;;;;;;;23.70;71.26;100663.09;1752221;81;20957;-44
2021/06/20 07:37:03;;;;;;;1.02;0.70;;;;;;;23.68;70.16;100655.60;1713795;82;20943;-47
2021/06/20 07:39:30;;;;;;;2.95;0.95;;;;;;;23.68;69.64;100653.39;1688042;83;21151;-43
2021/06/20 07:41:58;;;;;;;2.67;1.05;;;;;;;23.69;70.94;100647.80;1695655;83;20932;-45
2021/06/20 07:44:26;;;;;;;1.45;0.90;;;;;;;23.72;72.05;100642.03;1697080;83;21455;-46
2021/06/20 07:46:54;;;;;;;4.35;1.10;;;;;;;23.79;73.31;100642.70;1700117;83;20933;-46
2021/06/20 07:49:21;;;;;;;4.28;1.12;;;;;;;23.86;74.73;100639.63;1694990;83;20980;-45
2021/06/20 07:51:47;;;;;;;3.20;0.98;;;;;;;23.93;74.61;100640.64;1699491;83;20996;-45
2021/06/20 07:54:14;;;;;;;4.00;1.10;;;;;;;24.03;74.11;100633.65;1696098;83;20945;-45
2021/06/20 07:56:41;;;;;;;4.78;1.20;;;;;;;24.13;73.78;100626.13;1697081;83;21012;-48
2021/06/20 07:59:08;;;;;;;5.10;1.10;;;;;;;24.24;72.33;100620.81;1685084;83;20987;-46
2021/06/20 08:01:38;;;;;;;5.03;1.00;;;;;;;24.33;69.65;100615.69;1688672;83;21022;-48
2021/06/20 08:04:05;;;;;;;3.83;0.98;;;;;;;24.43;68.97;100612.76;1709428;82;21039;-52
2021/06/20 08:06:32;;;;;;;1.95;0.70;;;;;;;24.49;68.18;100606.09;1697733;82;21014;-49
2021/06/20 08:08:59;;;;;;;1.15;0.60;;;;;;;24.57;67.02;100601.99;1738300;80;20996;-47
2021/06/20 08:11:26;;;;;;;1.65;0.82;;;;;;;24.64;66.83;100599.91;1703134;82;21463;-49
2021/06/20 08:13:54;;;;;;;2.62;0.95;;;;;;;24.69;66.63;100592.04;1735902;80;21445;-48
2021/06/20 08:16:21;;;;;;;2.33;1.22;;;;;;;24.74;66.86;100595.08;1737349;81;20973;-48
2021/06/20 08:18:50;;;;;;;2.50;0.85;;;;;;;24.79;65.77;100592.14;1741837;80;21033;-48
2021/06/20 08:21:16;;;;;;;2.42;0.80;;;;;;;24.83;66.13;100600.30;1743363;80;20996;-48
2021/06/20 08:23:43;;;;;;;4.28;0.90;;;;;;;24.88;66.25;100597.56;1702887;82;21994;-48
2021/06/20 08:26:10;;;;;;;3.27;0.72;;;;;;;24.94;66.86;100600.92;1703430;82;21039;-47
2021/06/20 08:28:37;;;;;;;2.47;0.80;;;;;;;25.01;66.41;100600.53;1738608;80;21536;-47
2021/06/20 08:31:04;;;;;;;4.62;0.90;;;;;;;25.05;63.67;100591.81;1734797;80;20964;-49
2021/06/20 08:33:31;;;;;;;1.67;0.93;;;;;;;25.11;65.94;100577.95;1736189;80;20989;-51
2021/06/20 08:35:59;;;;;;;2.20;1.20;;;;;;;25.19;66.52;100578.44;1739197;80;21008;-46
2021/06/20 08:38:26;;;;;;;3.95;2.22;;;;;;;25.25;66.68;100575.84;1738683;80;21000;-45
2021/06/20 08:40:56;;;;;;;3.17;0.98;;;;;;;25.30;65.32;100575.30;1735149;80;20956;-50
2021/06/20 08:43:24;;;;;;;1.05;0.95;;;;;;;25.34;65.09;100565.69;1733091;80;20968;-48
2021/06/20 08:45:54;;;;;;;3.10;1.40;;;;;;;25.39;62.56;100555.07;1735137;80;20936;-44
2021/06/20 08:48:22;;;;;;;4.12;0.60;;;;;;;25.43;60.73;100553.69;1738406;81;20964;-49
2021/06/20 08:50:51;;;;;;;5.65;0.93;;;;;;;25.48;62.01;100552.61;1739276;80;20964;-46
2021/06/20 08:53:20;;;;;;;2.70;0.90;;;;;;;25.55;62.21;100557.31;1705513;82;21905;-46
2021/06/20 08:55:47;;;;;;;2.77;1.25;;;;;;;25.61;61.93;100548.40;1694423;82;21658;-45
2021/06/20 08:58:25;;;;;;;6.22;1.45;;;;;;;25.66;59.73;100554.98;1742843;80;20932;-48
2021/06/20 09:00:52;;;;;;;1.82;0.90;;;;;;;25.71;59.16;100552.23;1735547;80;20956;-46
2021/06/20 09:03:19;;;;;;;7.70;1.02;;;;;;;25.75;58.42;100550.27;1682992;83;21027;-43
2021/06/20 09:06:03;;;;;;;2.15;0.60;;;;;;;25.80;57.66;100555.18;1735879;80;20964;-46
2021/06/20 09:08:50;;;;;;;2.85;0.70;;;;;;;25.83;56.14;100548.84;1739341;80;21621;-47
2021/06/20 09:11:31;;;;;;;4.00;0.90;;;;;;;25.91;54.90;100558.86;1702288;82;21001;-50
2021/06/20 09:14:10;;;;;;;1.82;0.70;;;;;;;25.96;54.29;100563.77;1742769;80;20952;-46
2021/06/20 09:16:52;;;;;;;1.55;0.90;;;;;;;25.99;53.18;100559.28;1739284;80;20940;-44
2021/06/20 09:19:33;;;;;;;4.37;0.98;;;;;;;26.03;51.74;100566.91;1736754;80;21032;-46
2021/06/20 09:22:04;;;;;;;3.08;0.90;;;;;;;26.08;53.37;100566.32;1735438;80;20996;-45
2021/06/20 09:24:30;;;;;;;1.20;0.75;;;;;;;26.14;55.33;100575.15;1696898;82;20980;-43
2021/06/20 09:26:58;;;;;;;2.33;0.68;;;;;;;26.19;54.20;100561.77;1739743;80;21526;-43
2021/06/20 09:29:33;;;;;;;5.53;1.40;;;;;;;26.24;52.56;100559.84;1732744;80;21003;-43
2021/06/20 09:32:02;;;;;;;3.55;1.77;;;;;;;26.29;53.06;100556.85;1737390;80;21434;-43
2021/06/20 09:34:28;;;;;;;2.80;1.27;;;;;;;26.34;52.70;100553.55;1731587;80;20976;-42
2021/06/20 09:37:02;;;;;;;4.67;1.15;;;;;;;26.38;53.62;100543.08;1682113;82;21003;-43
2021/06/20 09:39:30;;;;;;;3.70;0.85;;;;;;;26.41;53.34;100549.02;1690132;83;21000;-43
2021/06/20 09:42:04;;;;;;;4.87;1.67;;;;;;;26.44;53.73;100551.36;1694375;83;21300;-43
2021/06/20 09:44:44;;;;;;;4.28;1.95;;;;;;;26.50;55.51;100550.58;1687550;83;21000;-43
2021/06/20 09:47:13;;;;;;;3.33;1.02;;;;;;;26.55;56.38;100552.78;1684399;83;21004;-43
2021/06/20 09:49:42;;;;;;;5.05;0.98;;;;;;;26.60;56.82;100553.05;1673465;84;21511;-44
2021/06/20 09:52:11;;;;;;;3.50;0.88;;;;;;;26.66;57.93;100555.52;1731433;80;20932;-43
2021/06/20 09:54:44;;;;;;;1.55;0.80;;;;;;;26.70;55.89;100554.95;1737403;81;20965;-44
2021/06/20 09:57:16;;;;;;;2.25;1.00;;;;;;;26.73;53.69;100550.98;1703116;82;21490;-44
2021/06/20 10:00:01;;;;;;;3.08;0.90;;;;;;;26.77;53.26;100548.19;1738910;80;20984;-43
2021/06/20 10:02:32;;;;;;;4.03;1.10;;;;;;;26.80;52.19;100539.59;1734081;80;21019;-42
2021/06/20 10:04:59;;;;;;;2.42;0.95;;;;;;;26.84;52.20;100540.91;1735959;80;21008;-43
2021/06/20 10:07:27;;;;;;;3.67;1.20;;;;;;;26.87;52.43;100542.41;1704440;82;21057;-43
2021/06/20 10:09:55;;;;;;;4.90;0.90;;;;;;;26.90;51.93;100530.55;1749271;80;21474;-43
2021/06/20 10:12:22;;;;;;;2.47;0.95;;;;;;;26.93;51.65;100522.47;1712851;82;20936;-45
2021/06/20 10:14:56;;;;;;;1.75;0.90;;;;;;;26.97;51.88;100523.25;1710846;82;20951;-47
2021/06/20 10:17:36;;;;;;;2.80;1.30;;;;;;;27.01;52.77;100515.48;1715146;82;20924;-46
2021/06/20 10:20:09;;;;;;;1.60;1.07;;;;;;;27.08;52.74;100515.03;1744082;80;21929;-45
2021/06/20 10:22:41;;;;;;;2.77;0.90;;;;;;;27.12;51.15;100505.40;1709761;82;20964;-43
2021/06/20 10:25:10;;;;;;;3.08;1.40;;;;;;;27.18;52.01;100515.58;1748048;80;20960;-42
2021/06/20 10:27:45;;;;;;;2.85;0.82;;;;;;;27.22;51.72;100510.57;1688905;82;20944;-42
2021/06/20 10:30:22;;;;;;;4.10;0.90;;;;;;;27.26;50.59;100509.11;1708502;82;21024;-43
2021/06/20 10:32:51;;;;;;;1.55;0.90;;;;;;;27.31;50.77;100516.20;1708029;82;20971;-45
2021/06/20 10:35:23;;;;;;;4.62;0.90;;;;;;;27.35;49.72;100506.56;1711574;82;20969;-44
2021/06/20 10:37:52;;;;;;;2.65;0.95;;;;;;;27.41;49.79;100515.86;1747787;80;20932;-48
2021/06/20 10:40:43;;;;;;;6.10;1.05;;;;;;;27.44;47.26;100511.87;1741560;80;21454;-47
2021/06/20 10:43:18;;;;;;;3.72;1.07;;;;;;;27.47;47.30;100509.61;1748753;80;20940;-45
2021/06/20 10:45:46;;;;;;;2.33;1.05;;;;;;;27.51;48.03;100501.30;1717499;81;20949;-47
2021/06/20 10:48:26;;;;;;;3.67;1.05;;;;;;;27.56;46.13;100494.70;1744024;80;20928;-42
2021/06/20 10:50:58;;;;;;;4.10;0.85;;;;;;;27.59;46.13;100492.95;1742445;80;21286;-43
2021/06/20 10:53:26;;;;;;;5.50;1.05;;;;;;;27.63;47.12;100487.38;1705254;82;21041;-42
2021/06/20 10:55:57;;;;;;;2.15;1.07;;;;;;;27.69;46.70;100484.87;1706553;82;20955;-43
2021/06/20 10:58:30;;;;;;;5.53;0.85;;;;;;;27.72;46.16;100474.88;1740081;80;21007;-48
2021/06/20 11:01:10;;;;;;;3.30;1.10;;;;;;;27.75;45.34;100474.50;1742305;80;20964;-45
2021/06/20 11:03:37;;;;;;;3.20;0.95;;;;;;;27.77;44.40;100470.52;1705048;82;20987;-41
2021/06/20 11:06:11;;;;;;;2.15;0.88;;;;;;;27.80;45.13;100478.31;1748048;80;20975;-44
2021/06/20 11:09:00;;;;;;;3.25;0.82;;;;;;;27.83;44.95;100469.72;1743784;80;21550;-46
2021/06/20 11:11:32;;;;;;;4.92;1.37;;;;;;;27.89;47.74;100470.80;1716469;82;20963;-47
2021/06/20 11:14:01;;;;;;;;;;;;;;;27.95;45.86;100470.53;1720155;82;20939;-45
2021/06/20 11:16:35;;;;;;;2.33;1.10;;;;;;;27.98;44.43;100470.11;1698940;83;20113;-45
2021/06/20 11:19:20;;;;;;;5.22;1.20;;;;;;;28.01;46.13;100480.66;1698987;83;20959;-44
2021/06/20 11:21:54;;;;;;;3.17;0.85;;;;;;;28.04;44.64;100486.56;1716131;82;21545;-44
2021/06/20 11:24:40;;;;;;;2.70;0.93;;;;;;;28.07;43.85;100485.84;1696154;83;20969;-47
2021/06/20 11:27:12;;;;;;;3.47;0.70;;;;;;;28.09;44.91;100487.33;1694223;84;20942;-46
2021/06/20 11:29:47;;;;;;;5.50;1.15;;;;;;;28.11;44.87;100495.35;1694117;83;22113;-47
2021/06/20 11:32:22;;;;;;;6.00;0.70;;;;;;;28.14;45.11;100488.09;1693670;83;20973;-44